Time;durP1;ratioP1;P1;durP2;ratioP2;P2;SDS_P1;SDS_P2;PMS_P1;PMS_P2;Temp;Humidity;BMP_temperature;BMP_pressure;BME280_temperature;BME280_humidity;BME280_pressure;Samples;Min_cycle;Max_cycle;Signal;HPM_P1;HPM_P2
2022/05/05 00:01:09;;;;;;;6.72;4.08;;;;;;;9.06;48.79;101122.11;1698416;84;25769;-77
2022/05/05 00:03:36;;;;;;;7.72;3.92;;;;;;;9.07;48.74;101122.92;1697701;84;25898;-77
2022/05/05 00:06:02;;;;;;;12.58;4.22;;;;;;;9.07;48.77;101129.11;1698076;84;27490;-77
2022/05/05 00:08:30;;;;;;;12.55;4.90;;;;;;;9.07;48.85;101130.94;1697741;84;25772;-77
2022/05/05 00:16:27;;;;;;;7.87;4.03;;;;;;;9.05;49.47;101120.91;1677770;84;25575;-77
2022/05/05 00:18:53;;;;;;;8.05;3.83;;;;;;;9.06;49.87;101123.44;1669722;85;28361;-77
2022/05/05 00:21:19;;;;;;;8.33;4.00;;;;;;;9.08;50.04;101119.27;1670060;85;25833;-77
2022/05/05 00:23:46;;;;;;;7.65;4.90;;;;;;;9.07;50.28;101119.75;1684476;84;25773;-77
2022/05/05 00:26:12;;;;;;;9.03;4.55;;;;;;;9.08;50.23;101122.78;1697821;84;26664;-77
2022/05/05 00:28:38;;;;;;;8.85;4.03;;;;;;;9.08;50.31;101117.44;1697857;84;26474;-77
2022/05/05 00:31:04;;;;;;;9.18;4.37;;;;;;;9.08;50.33;101121.94;1698072;84;27703;-77
2022/05/05 00:33:31;;;;;;;9.80;4.62;;;;;;;9.11;50.55;101126.96;1697938;84;26141;-77
2022/05/05 00:35:57;;;;;;;7.40;3.90;;;;;;;9.14;50.58;101130.13;1698019;84;25880;-77
2022/05/05 00:38:24;;;;;;;8.58;4.67;;;;;;;9.16;50.56;101124.61;1697870;84;25828;-77
2022/05/05 00:40:50;;;;;;;9.60;4.92;;;;;;;9.17;50.55;101127.11;1698005;84;25955;-77
2022/05/05 00:43:16;;;;;;;8.68;4.83;;;;;;;9.21;50.35;101119.13;1695491;84;27453;-77
2022/05/05 00:45:43;;;;;;;8.10;3.98;;;;;;;9.25;50.51;101122.30;1697841;84;26017;-77
2022/05/05 00:48:12;;;;;;;11.18;4.08;;;;;;;9.25;50.46;101124.47;1698138;84;25305;-77
2022/05/05 00:50:38;;;;;;;12.78;5.00;;;;;;;9.29;50.24;101120.95;1698158;84;26456;-77
2022/05/05 00:53:05;;;;;;;8.23;4.60;;;;;;;9.31;50.36;101120.29;1698159;84;25986;-77
2022/05/05 00:55:33;;;;;;;10.38;4.37;;;;;;;9.32;50.11;101117.97;1697824;84;28310;-77
2022/05/05 00:58:03;;;;;;;7.72;4.00;;;;;;;9.34;50.24;101114.09;1697958;84;26510;-77
2022/05/05 01:00:32;;;;;;;7.08;4.10;;;;;;;9.37;50.34;101110.27;1698320;84;25722;-77
2022/05/05 01:03:00;;;;;;;9.10;5.10;;;;;;;9.42;50.29;101119.13;1697764;84;25954;-77
2022/05/05 01:05:28;;;;;;;10.98;4.97;;;;;;;9.43;50.27;101120.28;1698008;84;25896;-77
2022/05/05 01:07:58;;;;;;;12.58;5.40;;;;;;;9.44;50.44;101117.96;1698045;84;27429;-77
2022/05/05 01:10:26;;;;;;;14.23;5.10;;;;;;;9.46;50.43;101121.80;1698328;84;25976;-77
2022/05/05 01:12:53;;;;;;;15.03;4.65;;;;;;;9.47;50.65;101121.66;1687272;84;25790;-76
2022/05/05 01:15:21;;;;;;;11.00;4.50;;;;;;;9.49;50.60;101119.64;1698155;84;26684;-77
2022/05/05 01:17:47;;;;;;;7.80;4.47;;;;;;;9.51;50.36;101120.80;1698210;84;25805;-77
2022/05/05 01:20:17;;;;;;;8.15;4.37;;;;;;;9.51;50.67;101120.80;1698330;84;28282;-77
2022/05/05 01:22:43;;;;;;;6.05;3.83;;;;;;;9.54;50.62;101120.48;1697686;84;25876;-76
2022/05/05 01:28:11;;;;;;;9.03;4.33;;;;;;;9.61;50.89;101113.44;1687767;84;25785;-77
2022/05/05 01:30:40;;;;;;;7.85;4.53;;;;;;;9.60;50.78;101112.59;1697989;84;25844;-76
2022/05/05 01:33:24;;;;;;;6.42;4.22;;;;;;;9.59;50.65;101113.62;1698154;84;27484;-76
2022/05/05 01:35:54;;;;;;;9.40;4.20;;;;;;;9.59;50.79;101109.60;1698049;84;26635;-77
2022/05/05 01:38:23;;;;;;;10.75;4.12;;;;;;;9.59;50.92;101110.94;1697905;84;25753;-77
2022/05/05 01:40:50;;;;;;;10.03;4.45;;;;;;;9.59;50.92;101111.44;1698417;84;25833;-77
2022/05/05 01:43:21;;;;;;;7.40;4.30;;;;;;;9.58;50.89;101116.47;1686101;84;26478;-77
2022/05/05 01:45:47;;;;;;;8.15;4.15;;;;;;;9.60;50.87;101113.12;1679669;84;27618;-77
2022/05/05 01:48:14;;;;;;;11.43;4.30;;;;;;;9.62;50.91;101115.97;1681879;84;25958;-77
2022/05/05 01:50:41;;;;;;;7.78;4.42;;;;;;;9.63;50.94;101113.61;1683451;84;25783;-77
2022/05/05 01:53:07;;;;;;;12.88;5.25;;;;;;;9.65;50.76;101116.11;1691708;84;25789;-77
2022/05/05 01:55:34;;;;;;;11.30;5.20;;;;;;;9.65;50.77;101108.92;1697901;84;26502;-77
2022/05/05 01:58:02;;;;;;;8.70;4.53;;;;;;;9.67;51.04;101116.28;1697867;84;27462;-77
2022/05/05 02:00:31;;;;;;;8.30;3.95;;;;;;;9.68;50.83;101113.95;1697750;84;25775;-76
2022/05/05 02:02:57;;;;;;;8.55;4.80;;;;;;;9.71;50.78;101116.80;1697808;84;25825;-77
2022/05/05 02:05:26;;;;;;;9.13;4.33;;;;;;;9.72;50.79;101119.30;1697753;84;26665;-77
2022/05/05 02:07:53;;;;;;;10.18;5.12;;;;;;;9.71;50.64;101115.46;1697843;84;25842;-77
2022/05/05 02:10:20;;;;;;;7.70;4.17;;;;;;;9.70;50.83;101116.45;1697727;84;27458;-77
2022/05/05 02:12:46;;;;;;;9.20;4.50;;;;;;;9.70;50.96;101117.78;1698107;84;26630;-77
2022/05/05 02:15:14;;;;;;;9.55;4.62;;;;;;;9.71;50.75;101115.46;1698038;84;25995;-76
2022/05/05 02:17:44;;;;;;;10.20;4.17;;;;;;;9.72;50.59;101111.77;1697565;84;25844;-77
2022/05/05 02:20:11;;;;;;;7.60;4.10;;;;;;;9.72;50.60;101112.61;1698091;84;25321;-77
2022/05/05 02:22:39;;;;;;;9.00;4.12;;;;;;;9.74;50.67;101108.42;1697862;84;27431;-77
2022/05/05 02:25:07;;;;;;;9.20;4.17;;;;;;;9.76;50.63;101113.94;1698067;84;26417;-77
2022/05/05 02:27:49;;;;;;;9.88;3.80;;;;;;;9.77;50.45;101113.45;1686395;84;25782;-77
2022/05/05 02:30:22;;;;;;;10.20;4.30;;;;;;;9.77;50.53;101109.43;1697197;84;27295;-76
2022/05/05 02:32:49;;;;;;;11.53;4.47;;;;;;;9.79;50.43;101113.61;1685976;84;25857;-77
2022/05/05 02:35:16;;;;;;;7.25;4.08;;;;;;;9.81;50.43;101111.60;1688373;84;27460;-76
2022/05/05 02:40:30;;;;;;;8.00;3.62;;;;;;;9.85;50.37;101112.09;1697910;82;25766;-77
2022/05/05 02:42:58;;;;;;;11.22;3.80;;;;;;;9.85;50.32;101108.08;1695929;84;26552;-77
2022/05/05 02:45:25;;;;;;;7.60;3.85;;;;;;;9.85;50.38;101099.55;1686958;83;25774;-77
2022/05/05 02:47:52;;;;;;;5.58;3.27;;;;;;;9.86;50.13;101109.23;1688669;84;28415;-77
2022/05/05 02:50:19;;;;;;;10.98;4.80;;;;;;;9.89;50.16;101111.58;1689086;84;25826;-77
2022/05/05 02:52:45;;;;;;;7.60;3.17;;;;;;;9.91;49.75;101101.55;1692250;84;26757;-77
2022/05/05 02:55:12;;;;;;;7.70;3.58;;;;;;;9.92;49.84;101103.73;1670206;84;25795;-76
2022/05/05 02:57:39;;;;;;;5.25;3.65;;;;;;;9.92;49.73;101101.86;1670275;84;25891;-77
2022/05/05 03:00:10;;;;;;;10.32;3.95;;;;;;;9.93;49.76;101096.86;1691575;84;28285;-77
2022/05/05 03:02:37;;;;;;;;;;;;;;;9.94;49.69;101101.71;1690840;83;25946;-77
2022/05/05 03:05:04;;;;;;;7.72;3.75;;;;;;;9.94;49.58;101099.03;1698061;84;25874;-76
2022/05/05 03:07:30;;;;;;;4.92;3.35;;;;;;;9.93;49.80;101105.38;1696169;84;26492;-77
2022/05/05 03:09:58;;;;;;;8.08;3.85;;;;;;;9.94;49.47;101107.06;1696886;84;25794;-77
2022/05/05 03:12:24;;;;;;;7.12;3.65;;;;;;;9.95;49.31;101106.88;1697732;84;28374;-77
2022/05/05 03:14:51;;;;;;;5.50;3.52;;;;;;;9.96;49.62;101100.54;1697923;84;25852;-76
2022/05/05 03:17:17;;;;;;;6.20;3.20;;;;;;;9.95;49.46;101101.53;1698015;84;25891;-77
2022/05/05 03:19:43;;;;;;;10.23;3.50;;;;;;;9.95;49.42;101098.02;1698572;84;26384;-77
2022/05/05 03:22:09;;;;;;;10.28;3.60;;;;;;;9.98;49.47;101101.70;1685587;84;25738;-77
2022/05/05 03:24:35;;;;;;;8.28;3.90;;;;;;;10.01;49.30;101098.66;1678923;84;28209;-77
2022/05/05 03:27:04;;;;;;;4.75;3.25;;;;;;;10.02;49.28;101096.33;1677273;84;25898;-77
2022/05/05 03:29:32;;;;;;;7.55;3.65;;;;;;;10.00;49.23;101097.85;1698320;84;25819;-77
2022/05/05 03:31:58;;;;;;;7.28;3.90;;;;;;;9.99;49.04;101092.64;1686745;84;26669;-77
2022/05/05 03:34:24;;;;;;;11.05;4.12;;;;;;;9.99;49.10;101099.34;1685576;83;25893;-77
2022/05/05 03:36:50;;;;;;;13.65;4.75;;;;;;;9.98;49.25;101093.17;1698026;83;27427;-76
2022/05/05 03:39:17;;;;;;;20.27;6.80;;;;;;;9.99;49.12;101103.35;1698354;83;26559;-77
2022/05/05 03:41:43;;;;;;;13.93;6.60;;;;;;;9.98;49.06;101102.55;1697897;84;26191;-77
2022/05/05 03:44:09;;;;;;;13.20;6.60;;;;;;;10.00;49.08;101105.04;1697460;84;26684;-77
2022/05/05 03:46:35;;;;;;;12.78;6.40;;;;;;;10.01;49.12;101102.67;1672627;84;25824;-77
2022/05/05 03:49:02;;;;;;;9.65;5.05;;;;;;;10.01;48.90;101108.03;1688652;84;27691;-76
2022/05/05 03:51:28;;;;;;;7.00;4.28;;;;;;;10.00;48.96;101117.92;1698149;84;25849;-77
2022/05/05 03:53:54;;;;;;;8.53;4.78;;;;;;;10.00;48.96;101109.05;1697502;84;25842;-76
2022/05/05 03:56:20;;;;;;;7.03;4.10;;;;;;;10.01;49.00;101115.56;1697874;84;25849;-77
2022/05/05 03:58:46;;;;;;;6.12;3.83;;;;;;;10.00;48.94;101113.06;1687602;84;25848;-77
2022/05/05 04:01:13;;;;;;;7.35;3.83;;;;;;;10.00;48.97;101115.25;1686692;84;28250;-77
2022/05/05 04:03:43;;;;;;;9.85;3.95;;;;;;;10.02;49.03;101117.25;1685045;84;25924;-76
2022/05/05 04:06:11;;;;;;;7.90;4.00;;;;;;;10.04;48.90;101123.77;1688619;84;25792;-77
2022/05/05 04:08:39;;;;;;;9.05;4.12;;;;;;;10.03;48.88;101121.58;1685628;84;26536;-77
2022/05/05 04:11:07;;;;;;;6.95;3.85;;;;;;;10.05;49.00;101123.58;1680123;84;26057;-77
2022/05/05 04:13:35;;;;;;;12.85;4.53;;;;;;;10.06;49.08;101117.23;1683651;84;27688;-77
2022/05/05 04:16:01;;;;;;;9.53;5.08;;;;;;;10.09;48.92;101123.56;1687097;84;26029;-76
2022/05/05 04:18:27;;;;;;;8.30;4.97;;;;;;;10.13;48.84;101128.63;1690790;84;26632;-77
2022/05/05 04:20:54;;;;;;;10.72;5.70;;;;;;;10.16;48.84;101125.63;1684121;84;26493;-77
2022/05/05 04:23:21;;;;;;;11.88;6.22;;;;;;;10.17;48.75;101128.12;1685190;84;25827;-77
2022/05/05 04:25:47;;;;;;;11.93;6.22;;;;;;;10.17;48.63;101120.09;1686056;84;28304;-77
2022/05/05 04:28:15;;;;;;;10.38;5.67;;;;;;;10.20;48.78;101118.91;1661312;84;25886;-77
2022/05/05 04:30:42;;;;;;;9.60;4.90;;;;;;;10.22;48.78;101123.09;1685458;84;25811;-76
2022/05/05 04:33:08;;;;;;;7.83;5.30;;;;;;;10.23;48.79;101126.09;1688228;84;25772;-77
2022/05/05 04:35:36;;;;;;;13.70;6.35;;;;;;;10.24;48.68;101126.93;1685372;84;26579;-77
2022/05/05 04:38:03;;;;;;;7.08;4.62;;;;;;;10.25;48.77;101128.09;1694122;83;28317;-77
2022/05/05 04:40:30;;;;;;;6.33;3.90;;;;;;;10.27;48.78;101123.89;1698251;82;25909;-77
2022/05/05 04:42:57;;;;;;;7.67;4.03;;;;;;;10.31;48.50;101123.91;1692873;82;25824;-77
2022/05/05 04:45:23;;;;;;;7.37;3.92;;;;;;;10.35;48.52;101126.56;1698296;82;25771;-77
2022/05/05 04:47:50;;;;;;;6.25;3.92;;;;;;;10.38;48.66;101128.39;1698242;82;25951;-76
2022/05/05 04:50:17;;;;;;;12.53;4.37;;;;;;;10.42;48.66;101125.69;1697999;84;27627;-77
2022/05/05 04:52:44;;;;;;;10.85;4.58;;;;;;;10.48;48.97;101133.03;1694466;84;25974;-77
2022/05/05 04:55:10;;;;;;;10.00;4.55;;;;;;;10.52;48.87;101128.18;1674693;84;25882;-77
2022/05/05 04:57:38;;;;;;;7.30;4.05;;;;;;;10.57;48.87;101127.13;1684036;84;26380;-77
2022/05/05 05:00:07;;;;;;;6.10;3.40;;;;;;;10.60;49.04;101126.30;1697857;84;25799;-77
2022/05/05 05:02:33;;;;;;;9.08;3.92;;;;;;;10.62;48.72;101126.13;1686241;84;28364;-77
2022/05/05 05:05:00;;;;;;;10.68;4.28;;;;;;;10.68;48.76;101116.03;1685484;84;25948;-77
2022/05/05 05:07:26;;;;;;;9.03;3.42;;;;;;;10.71;48.45;101125.08;1674629;84;26642;-77
2022/05/05 05:09:53;;;;;;;7.47;3.90;;;;;;;10.73;48.40;101123.88;1680341;84;26397;-77
2022/05/05 05:12:19;;;;;;;12.75;4.42;;;;;;;10.77;48.44;101129.73;1681638;84;25822;-77
2022/05/05 05:14:45;;;;;;;7.85;3.60;;;;;;;10.81;48.53;101125.69;1684940;84;27476;-77
2022/05/05 05:17:11;;;;;;;5.30;2.80;;;;;;;10.86;48.46;101127.34;1697579;84;25926;-77
2022/05/05 05:19:38;;;;;;;6.72;3.72;;;;;;;10.94;48.45;101124.62;1697844;84;26544;-76
2022/05/05 05:22:05;;;;;;;9.05;3.40;;;;;;;11.00;48.33;101123.91;1697977;84;26545;-77
2022/05/05 05:24:32;;;;;;;6.78;4.37;;;;;;;11.03;48.47;101118.70;1697638;84;25881;-77
2022/05/05 05:26:59;;;;;;;9.43;3.77;;;;;;;11.08;48.49;101114.97;1697184;84;28253;-77
2022/05/05 05:29:25;;;;;;;12.30;3.40;;;;;;;11.13;48.01;101116.62;1697484;84;25773;-77
2022/05/05 05:31:51;;;;;;;5.62;3.27;;;;;;;11.16;47.97;101122.45;1697823;84;25816;-77
2022/05/05 05:34:18;;;;;;;10.15;2.98;;;;;;;11.20;48.11;101118.42;1697376;84;25781;-77
2022/05/05 05:36:44;;;;;;;8.85;3.37;;;;;;;11.24;48.00;101121.08;1671617;84;25805;-77
2022/05/05 05:39:10;;;;;;;7.90;3.70;;;;;;;11.25;47.66;101128.09;1677691;84;27452;-77
2022/05/05 05:41:36;;;;;;;13.65;3.15;;;;;;;11.29;47.90;101125.37;1681966;84;25936;-77
2022/05/05 05:44:03;;;;;;;12.43;3.50;;;;;;;11.36;48.25;101120.14;1669962;84;25933;-77
2022/05/05 05:46:29;;;;;;;13.45;3.65;;;;;;;11.45;47.95;101120.41;1692117;84;26343;-77
2022/05/05 05:48:56;;;;;;;13.20;3.62;;;;;;;11.56;48.17;101124.86;1689552;84;25781;-77
2022/05/05 05:51:24;;;;;;;11.55;3.62;;;;;;;11.73;48.50;101124.73;1686745;84;27663;-77
2022/05/05 05:53:50;;;;;;;6.53;3.20;;;;;;;11.84;47.93;101122.46;1680726;84;25874;-77
2022/05/05 05:56:17;;;;;;;10.48;4.47;;;;;;;11.92;47.77;101121.03;1680756;84;25829;-77
2022/05/05 05:58:43;;;;;;;11.03;3.35;;;;;;;11.99;47.60;101120.64;1685993;84;26565;-77
2022/05/05 06:01:10;;;;;;;8.08;3.15;;;;;;;12.02;47.81;101126.13;1689428;84;26589;-77
2022/05/05 06:03:54;;;;;;;6.72;3.15;;;;;;;12.07;47.58;101126.42;1697171;83;26917;-77
2022/05/05 06:06:23;;;;;;;5.62;3.30;;;;;;;12.09;47.23;101125.22;1698006;84;25957;-77
2022/05/05 06:08:50;;;;;;;8.75;4.40;;;;;;;12.12;47.19;101130.23;1684683;84;25815;-77
2022/05/05 06:11:19;;;;;;;6.85;3.45;;;;;;;12.18;47.14;101121.44;1698264;84;25985;-77
2022/05/05 06:13:45;;;;;;;7.35;3.02;;;;;;;12.23;47.55;101127.07;1697958;84;25932;-77
2022/05/05 06:16:11;;;;;;;13.15;3.27;;;;;;;12.28;47.37;101123.33;1698041;84;27466;-77
2022/05/05 06:18:38;;;;;;;8.35;3.30;;;;;;;12.36;47.37;101115.68;1697909;84;25883;-77
2022/05/05 06:21:05;;;;;;;10.78;3.85;;;;;;;12.44;47.44;101123.67;1697660;84;25845;-77
2022/05/05 06:23:32;;;;;;;5.75;3.42;;;;;;;12.51;46.75;101126.45;1694043;83;26067;-77
2022/05/05 06:25:59;;;;;;;7.10;2.72;;;;;;;12.55;46.92;101126.39;1692480;84;25882;-77
2022/05/05 06:28:25;;;;;;;7.20;3.30;;;;;;;12.59;47.15;101128.52;1669882;85;27451;-77
2022/05/05 06:30:51;;;;;;;8.33;3.22;;;;;;;12.65;47.16;101134.99;1669929;85;25794;-77
2022/05/05 06:33:18;;;;;;;6.08;2.95;;;;;;;12.69;46.93;101134.94;1680369;84;26448;-77
2022/05/05 06:35:44;;;;;;;6.75;3.30;;;;;;;12.77;47.16;101129.45;1697429;84;25810;-77
2022/05/05 06:38:10;;;;;;;5.95;2.90;;;;;;;12.85;47.12;101134.74;1698176;84;26525;-78
2022/05/05 06:40:36;;;;;;;9.48;3.50;;;;;;;12.92;47.58;101129.75;1697845;84;27462;-77
2022/05/05 06:43:03;;;;;;;4.72;2.83;;;;;;;13.00;47.05;101131.52;1695349;84;25764;-77
2022/05/05 06:45:29;;;;;;;7.55;3.17;;;;;;;13.10;47.09;101128.03;1696645;84;25859;-77
2022/05/05 06:47:58;;;;;;;6.47;3.10;;;;;;;13.23;47.24;101121.95;1682273;84;25987;-77
2022/05/05 06:50:24;;;;;;;10.18;3.12;;;;;;;13.43;47.79;101125.69;1671550;84;26035;-77
2022/05/05 06:52:50;;;;;;;9.30;3.80;;;;;;;13.63;48.09;101119.96;1681545;84;28525;-77
2022/05/05 06:55:17;;;;;;;7.08;3.30;;;;;;;13.79;47.86;101123.73;1680251;84;26547;-77
2022/05/05 06:57:44;;;;;;;10.30;3.37;;;;;;;13.95;46.69;101126.13;1681058;84;25920;-77
2022/05/05 07:00:12;;;;;;;8.33;3.80;;;;;;;14.10;46.59;101126.02;1669731;84;26534;-77
2022/05/05 07:02:40;;;;;;;12.73;5.58;;;;;;;14.25;46.45;101121.36;1682978;84;25855;-77
2022/05/05 07:05:30;;;;;;;14.58;6.25;;;;;;;14.42;46.54;101126.78;1683727;84;27623;-77
2022/05/05 07:07:54;;;;;;;13.22;5.10;;;;;;;14.54;46.01;101126.55;1696661;84;25942;-77
2022/05/05 07:13:07;;;;;;;5.53;3.27;;;;;;;14.61;45.56;101130.09;1691285;84;25859;-77
2022/05/05 07:15:34;;;;;;;8.78;3.30;;;;;;;14.69;46.03;101128.60;1697962;84;26368;-78
2022/05/05 07:18:00;;;;;;;7.95;2.80;;;;;;;14.77;45.70;101124.38;1693799;84;27516;-78
2022/05/05 07:20:27;;;;;;;5.87;2.52;;;;;;;14.86;45.72;101125.03;1694035;83;26234;-78
2022/05/05 07:22:53;;;;;;;8.20;2.87;;;;;;;14.99;45.58;101123.73;1692965;84;26575;-78
2022/05/05 07:25:19;;;;;;;9.60;2.50;;;;;;;15.04;44.88;101123.94;1700976;82;25832;-78
2022/05/05 07:27:46;;;;;;;10.75;2.92;;;;;;;15.06;44.31;101127.27;1698685;82;26600;-78
2022/05/05 07:30:14;;;;;;;7.70;2.58;;;;;;;15.12;44.86;101127.83;1705246;82;27453;-78
2022/05/05 07:32:42;;;;;;;11.22;3.75;;;;;;;15.20;44.91;101123.59;1683482;84;26018;-78
2022/05/05 07:35:11;;;;;;;5.58;2.87;;;;;;;15.17;44.64;101122.13;1682234;84;25864;-78
2022/05/05 07:37:39;;;;;;;6.40;3.10;;;;;;;15.20;44.60;101118.19;1683620;84;25850;-78
2022/05/05 07:40:07;;;;;;;13.40;3.35;;;;;;;15.21;44.92;101118.48;1680069;84;25771;-78
2022/05/05 07:42:37;;;;;;;5.83;2.80;;;;;;;15.26;44.60;101124.11;1686090;84;27465;-78
2022/05/05 07:45:04;;;;;;;6.37;2.98;;;;;;;15.34;45.37;101122.56;1686804;84;25852;-77
2022/05/05 07:47:31;;;;;;;9.35;3.15;;;;;;;15.41;44.53;101125.61;1685046;83;25894;-78
2022/05/05 07:49:57;;;;;;;10.20;3.10;;;;;;;15.48;44.24;101121.60;1682041;85;26583;-78
2022/05/05 07:52:23;;;;;;;4.55;3.30;;;;;;;15.57;44.97;101127.09;1681620;85;25865;-78
2022/05/05 07:54:49;;;;;;;6.05;3.00;;;;;;;15.66;45.16;101113.70;1682360;83;28425;-78
2022/05/05 07:57:20;;;;;;;6.83;3.33;;;;;;;15.77;45.31;101113.60;1682038;83;25746;-78
2022/05/05 07:59:45;;;;;;;10.85;2.67;;;;;;;15.88;44.82;101113.82;1681812;85;26261;-77
2022/05/05 08:02:14;;;;;;;9.10;3.52;;;;;;;15.98;44.37;101114.73;1682100;85;26592;-78
2022/05/05 08:04:43;;;;;;;7.35;3.17;;;;;;;16.03;44.09;101113.59;1682193;83;25813;-77
2022/05/05 08:07:12;;;;;;;10.80;3.12;;;;;;;16.08;43.94;101113.80;1682287;84;27457;-78
2022/05/05 08:09:39;;;;;;;6.87;2.92;;;;;;;16.15;43.57;101113.25;1682043;85;25539;-78
2022/05/05 08:12:06;;;;;;;8.73;3.52;;;;;;;16.22;43.74;101118.14;1681772;85;25803;-77
2022/05/05 08:14:33;;;;;;;12.07;3.20;;;;;;;16.30;44.30;101120.61;1682029;85;25932;-78
2022/05/05 08:16:59;;;;;;;8.65;2.72;;;;;;;16.36;44.31;101117.59;1681868;84;25949;-78
2022/05/05 08:19:25;;;;;;;7.28;2.90;;;;;;;16.44;44.31;101120.06;1682037;85;27669;-78
2022/05/05 08:21:51;;;;;;;5.85;2.83;;;;;;;16.52;44.33;101123.41;1681714;85;25853;-78
2022/05/05 08:29:48;;;;;;;4.80;2.95;;;;;;;16.73;44.08;101119.58;1682034;85;26198;-78
2022/05/05 08:32:14;;;;;;;10.93;2.92;;;;;;;16.81;43.56;101118.81;1681826;85;27502;-78
2022/05/05 08:34:41;;;;;;;8.95;2.85;;;;;;;16.89;43.69;101123.16;1684778;84;26534;-78
2022/05/05 08:37:07;;;;;;;11.03;3.10;;;;;;;16.98;43.96;101108.86;1690781;84;25806;-78
2022/05/05 08:39:33;;;;;;;9.53;2.70;;;;;;;17.08;43.66;101108.70;1682937;84;25774;-78
2022/05/05 08:41:59;;;;;;;10.25;2.90;;;;;;;17.18;44.14;101110.92;1689793;84;26598;-78
2022/05/05 08:44:25;;;;;;;6.80;3.47;;;;;;;17.23;43.74;101109.23;1695548;84;27519;-78
2022/05/05 08:46:54;;;;;;;9.83;3.00;;;;;;;17.32;43.32;101101.69;1688280;84;26449;-78
2022/05/05 08:49:25;;;;;;;6.25;2.80;;;;;;;17.40;43.77;101105.48;1697674;84;26021;-78
2022/05/05 08:51:54;;;;;;;8.25;2.92;;;;;;;17.46;43.65;101105.44;1669781;84;26641;-78
2022/05/05 08:54:25;;;;;;;5.25;2.45;;;;;;;17.52;43.50;101107.30;1692142;84;26671;-77
2022/05/05 08:56:52;;;;;;;6.05;2.75;;;;;;;17.60;43.63;101099.41;1686385;84;27574;-78
2022/05/05 08:59:20;;;;;;;7.72;2.83;;;;;;;17.67;43.61;101099.67;1688118;84;26231;-78
2022/05/05 09:01:46;;;;;;;7.10;2.95;;;;;;;17.73;43.68;101090.66;1674628;84;25808;-78
2022/05/05 09:04:13;;;;;;;7.42;2.45;;;;;;;17.81;42.85;101096.34;1698268;84;25990;-77
2022/05/05 09:06:46;;;;;;;6.95;3.02;;;;;;;17.90;43.17;101090.11;1697953;84;26314;-78
2022/05/05 09:09:33;;;;;;;7.42;3.47;;;;;;;17.98;43.31;101093.37;1698095;84;27447;-78
2022/05/05 09:12:15;;;;;;;6.22;2.95;;;;;;;18.05;42.32;101090.59;1687433;84;25870;-78
2022/05/05 09:14:53;;;;;;;5.75;2.33;;;;;;;18.13;42.13;101092.48;1684730;84;25825;-78
2022/05/05 09:17:29;;;;;;;6.65;2.98;;;;;;;18.22;42.40;101088.41;1704417;79;25778;-77
2022/05/05 09:19:56;;;;;;;9.98;2.80;;;;;;;18.33;42.63;101086.31;1688459;83;25958;-77
2022/05/05 09:22:26;;;;;;;5.83;2.70;;;;;;;18.46;42.19;101098.92;1677377;85;27466;-77
2022/05/05 09:24:56;;;;;;;7.17;2.40;;;;;;;18.54;41.74;101099.97;1677747;85;25936;-77
2022/05/05 09:30:18;;;;;;;6.58;2.80;;;;;;;18.67;41.64;101092.23;1720463;79;25777;-78
2022/05/05 09:32:47;;;;;;;8.83;3.47;;;;;;;18.76;41.89;101098.46;1717759;82;25827;-77
2022/05/05 09:35:19;;;;;;;5.30;2.50;;;;;;;18.85;40.50;101094.91;1709701;82;56280;-77
2022/05/05 09:37:48;;;;;;;7.30;2.65;;;;;;;18.92;40.55;101101.09;1694968;83;26166;-78
2022/05/05 09:43:29;;;;;;;4.50;2.30;;;;;;;19.03;39.62;101090.81;1711309;79;25825;-78
2022/05/05 09:45:57;;;;;;;5.42;2.55;;;;;;;19.06;40.67;101090.33;1691540;84;25952;-78
2022/05/05 09:48:24;;;;;;;4.75;2.67;;;;;;;19.12;41.21;101086.69;1677470;83;27438;-77
2022/05/05 09:50:50;;;;;;;7.62;2.98;;;;;;;19.20;40.13;101082.31;1707417;83;25992;-77
2022/05/05 10:02:27;;;;;;;6.12;2.80;;;;;;;19.56;40.11;101079.48;1731057;79;26838;31
2022/05/05 10:04:49;;;;;;;10.65;2.87;;;;;;;19.69;39.17;101079.27;1723586;82;25461;-77
2022/05/05 10:07:20;;;;;;;3.65;2.12;;;;;;;19.77;39.96;101080.27;1725583;82;26098;-77
2022/05/05 10:12:36;;;;;;;5.40;2.60;;;;;;;19.91;39.08;101072.17;1741933;79;25871;-77
2022/05/05 10:15:04;;;;;;;4.20;2.55;;;;;;;19.95;38.86;101071.19;1736871;80;27656;-77
2022/05/05 10:17:36;;;;;;;6.95;3.20;;;;;;;20.00;39.13;101068.04;1745682;82;25723;-77
2022/05/05 10:20:05;;;;;;;8.78;3.47;;;;;;;20.06;39.44;101074.41;1745935;82;26533;-78
2022/05/05 10:22:37;;;;;;;6.62;2.50;;;;;;;20.11;40.16;101066.91;1716090;83;25965;-78
2022/05/05 10:25:09;;;;;;;4.08;2.62;;;;;;;20.22;39.53;101072.91;1716085;83;26528;-78
2022/05/05 10:27:44;;;;;;;4.33;2.37;;;;;;;20.32;39.59;101064.43;1716385;83;28398;-77
2022/05/05 10:30:16;;;;;;;5.58;2.35;;;;;;;20.41;38.79;101068.44;1716197;83;25844;-78
2022/05/05 10:35:53;;;;;;;5.53;2.80;;;;;;;20.58;38.62;101058.45;1680554;84;25846;-79
2022/05/05 10:38:42;;;;;;;4.80;3.65;;;;;;;20.68;37.81;101070.91;1699144;84;26387;-78
2022/05/05 10:41:35;;;;;;;4.85;2.42;;;;;;;20.73;38.16;101065.58;1695199;84;27694;-77
2022/05/05 10:44:23;;;;;;;8.03;3.45;;;;;;;20.78;38.50;101070.83;1693704;84;26509;-77
2022/05/05 10:47:06;;;;;;;12.58;2.60;;;;;;;20.88;37.75;101058.23;1701652;84;26527;-78
2022/05/05 10:49:40;;;;;;;6.70;2.92;;;;;;;20.99;37.70;101057.36;1698672;84;25842;-78
2022/05/05 10:52:23;;;;;;;4.17;2.40;;;;;;;21.14;38.48;101052.23;1687200;84;26400;-78
2022/05/05 10:54:53;;;;;;;11.38;2.83;;;;;;;21.32;37.97;101064.26;1689614;84;28324;-78
2022/05/05 10:57:31;;;;;;;7.62;2.98;;;;;;;21.31;37.75;101057.17;1702235;84;26018;-78
2022/05/05 11:00:19;;;;;;;6.65;2.80;;;;;;;21.32;38.68;101053.36;1682252;84;25804;-78
2022/05/05 11:03:10;;;;;;;6.83;2.83;;;;;;;21.39;38.77;101054.56;1700822;84;25785;-77
2022/05/05 11:08:53;;;;;;;9.30;2.80;;;;;;;21.36;37.66;101052.34;1754813;79;26251;-77
2022/05/05 11:23:10;;;;;;;7.65;3.20;;;;;;;21.64;38.40;101038.62;1712506;82;27034;-78
2022/05/05 11:25:43;;;;;;;11.65;3.33;;;;;;;21.77;38.18;101038.28;1714355;83;25981;-77
2022/05/05 11:28:10;;;;;;;5.83;3.08;;;;;;;21.88;38.37;101025.12;1710801;82;26131;-77
2022/05/05 11:30:37;;;;;;;11.53;4.58;;;;;;;21.94;38.14;101034.22;1724522;82;25767;-77
2022/05/05 11:33:06;;;;;;;8.30;3.00;;;;;;;22.00;37.66;101030.48;1724577;82;26256;-77
2022/05/05 11:38:24;;;;;;;6.83;3.22;;;;;;;22.08;38.35;101035.50;1704820;80;26394;-78
2022/05/05 11:46:38;;;;;;;9.20;3.95;;;;;;;22.28;38.07;101037.16;1648674;85;26510;-78
2022/05/05 11:49:06;;;;;;;8.95;3.98;;;;;;;22.28;37.56;101026.23;1700122;79;27481;-78
2022/05/05 11:51:35;;;;;;;4.00;3.17;;;;;;;22.34;37.47;101030.68;1706020;83;25764;-77
2022/05/05 11:54:10;;;;;;;6.33;3.62;;;;;;;22.47;38.08;101038.50;1706462;83;25846;-79
2022/05/05 11:56:42;;;;;;;5.15;3.20;;;;;;;22.58;37.23;101031.25;1736968;82;26627;-78
2022/05/05 12:02:04;;;;;;;3.80;3.50;;;;;;;22.66;37.95;101026.20;1689276;82;28306;-79
2022/05/05 12:04:33;;;;;;;5.90;3.22;;;;;;;22.76;38.00;101026.30;1715684;83;25739;-78
2022/05/05 12:07:00;;;;;;;5.95;3.85;;;;;;;22.78;37.59;101022.77;1702326;81;25741;-77
2022/05/05 12:09:27;;;;;;;6.37;3.67;;;;;;;22.75;37.39;101027.36;1718419;82;25757;-77
2022/05/05 12:11:54;;;;;;;4.75;3.80;;;;;;;22.80;37.45;101014.31;1721516;81;25807;-77
2022/05/05 12:14:26;;;;;;;7.65;3.37;;;;;;;22.78;36.55;101009.64;1713204;81;28264;-78
2022/05/05 12:16:51;;;;;;;6.65;3.95;;;;;;;22.80;36.94;101008.84;1694576;82;26286;-79
2022/05/05 12:19:20;;;;;;;10.05;4.70;;;;;;;22.90;36.97;101009.77;1694308;83;25912;-78
2022/05/05 12:21:58;;;;;;;7.85;4.22;;;;;;;23.03;36.78;101013.46;1691701;83;25806;-78
2022/05/05 12:24:25;;;;;;;6.17;4.12;;;;;;;23.12;36.59;101011.65;1700823;83;25246;-78
2022/05/05 12:27:07;;;;;;;7.97;4.08;;;;;;;23.16;36.71;101012.78;1685012;82;27488;-79
2022/05/05 12:29:45;;;;;;;5.25;4.08;;;;;;;23.16;35.55;100998.55;1708673;81;25824;-78
2022/05/05 12:32:16;;;;;;;6.95;4.00;;;;;;;23.09;36.07;100991.12;1699139;82;25936;-77
2022/05/05 12:34:44;;;;;;;5.33;3.95;;;;;;;23.16;36.44;100992.28;1732357;81;25812;-77
2022/05/05 12:37:19;;;;;;;6.25;4.62;;;;;;;23.21;36.77;100993.14;1721886;81;25799;-77
2022/05/05 12:40:07;;;;;;;6.50;4.33;;;;;;;23.14;36.41;100990.35;1703490;83;27449;-77